SIA606 RJTT-RJAA
Flight info
| Callsign | SIA606 |
|---|---|
| Flight time | 0h 17m |
| Altitude | 19000 |
| Route | RUTAS |
| Aircraft | A359/H-SDE2E3GHIJ3J4J5LM1ORWXY/LB1D1 |
Departure
| Time | 2026-05-08 01:19 |
|---|---|
| Airport | Tokyo Haneda International Airport (RJTT) |
Arrival
| Time | 2026-05-08 01:37 |
|---|---|
| Airport | Narita International Airport (RJAA) |
| Time | Latitude | Longitude | Altitude | Speed | Heading |
|---|---|---|---|---|---|
| 2026-05-08 01:05 | 35.55165 | 139.78957 | 29 ft | 0 kts | 243° |
| 2026-05-08 01:11 | 35.55173 | 139.78975 | 29 ft | 2 kts | 243° |
| 2026-05-08 01:11 | 35.55180 | 139.78993 | 27 ft | 2 kts | 243° |
| 2026-05-08 01:11 | 35.55187 | 139.79011 | 27 ft | 2 kts | 243° |
| 2026-05-08 01:12 | 35.55195 | 139.79030 | 27 ft | 3 kts | 256° |
| 2026-05-08 01:12 | 35.55197 | 139.79046 | 28 ft | 0 kts | 271° |
| 2026-05-08 01:12 | 35.55199 | 139.79042 | 27 ft | 1 kts | 287° |
| 2026-05-08 01:12 | 35.55203 | 139.79039 | 28 ft | 0 kts | 317° |
| 2026-05-08 01:14 | 35.55251 | 139.78998 | 29 ft | 16 kts | 327° |
| 2026-05-08 01:14 | 35.55383 | 139.78939 | 29 ft | 19 kts | 13° |
| 2026-05-08 01:14 | 35.55423 | 139.78972 | 29 ft | 3 kts | 50° |
| 2026-05-08 01:14 | 35.55468 | 139.79017 | 29 ft | 14 kts | 30° |
| 2026-05-08 01:15 | 35.55577 | 139.78990 | 29 ft | 21 kts | 330° |
| 2026-05-08 01:15 | 35.55735 | 139.78878 | 29 ft | 31 kts | 330° |
| 2026-05-08 01:15 | 35.55947 | 139.78726 | 29 ft | 39 kts | 329° |
| 2026-05-08 01:15 | 35.56179 | 139.78560 | 28 ft | 35 kts | 330° |
| 2026-05-08 01:16 | 35.56277 | 139.78490 | 29 ft | 13 kts | 330° |
| 2026-05-08 01:16 | 35.56303 | 139.78471 | 29 ft | 4 kts | 330° |
| 2026-05-08 01:16 | 35.56348 | 139.78460 | 29 ft | 11 kts | 11° |
| 2026-05-08 01:16 | 35.56406 | 139.78520 | 29 ft | 10 kts | 57° |
| 2026-05-08 01:17 | 35.56443 | 139.78595 | 29 ft | 1 kts | 59° |
| 2026-05-08 01:17 | 35.56448 | 139.78605 | 29 ft | 6 kts | 59° |
| 2026-05-08 01:18 | 35.56483 | 139.78694 | 30 ft | 15 kts | 84° |
| 2026-05-08 01:18 | 35.56443 | 139.78761 | 30 ft | 9 kts | 148° |
| 2026-05-08 01:18 | 35.56433 | 139.78768 | 30 ft | 0 kts | 149° |
| 2026-05-08 01:19 | 35.56277 | 139.78879 | 30 ft | 61 kts | 150° |
| 2026-05-08 01:19 | 35.55709 | 139.79282 | 30 ft | 123 kts | 150° |
| 2026-05-08 01:19 | 35.54819 | 139.79914 | 92 ft | 170 kts | 150° |
| 2026-05-08 01:19 | 35.53812 | 139.80660 | 830 ft | 165 kts | 152° |
| 2026-05-08 01:20 | 35.52804 | 139.81373 | 1545 ft | 175 kts | 155° |
| 2026-05-08 01:20 | 35.51667 | 139.82152 | 1846 ft | 205 kts | 155° |
| 2026-05-08 01:20 | 35.50326 | 139.83080 | 2059 ft | 236 kts | 154° |
| 2026-05-08 01:20 | 35.48840 | 139.84127 | 2542 ft | 252 kts | 154° |
| 2026-05-08 01:21 | 35.47299 | 139.85221 | 3274 ft | 257 kts | 154° |
| 2026-05-08 01:21 | 35.45718 | 139.86318 | 3994 ft | 263 kts | 157° |
| 2026-05-08 01:21 | 35.43977 | 139.86869 | 4734 ft | 258 kts | 185° |
| 2026-05-08 01:21 | 35.42247 | 139.86382 | 5436 ft | 256 kts | 203° |
| 2026-05-08 01:22 | 35.40573 | 139.85592 | 5858 ft | 258 kts | 205° |
| 2026-05-08 01:22 | 35.38905 | 139.84784 | 5986 ft | 257 kts | 205° |
| 2026-05-08 01:22 | 35.37259 | 139.84000 | 6000 ft | 258 kts | 205° |
| 2026-05-08 01:22 | 35.35580 | 139.83212 | 6009 ft | 258 kts | 205° |
| 2026-05-08 01:23 | 35.33903 | 139.82429 | 6007 ft | 258 kts | 205° |
| 2026-05-08 01:23 | 35.32225 | 139.81652 | 6004 ft | 257 kts | 205° |
| 2026-05-08 01:23 | 35.30550 | 139.80879 | 6004 ft | 257 kts | 205° |
| 2026-05-08 01:23 | 35.28875 | 139.80106 | 5991 ft | 258 kts | 205° |
| 2026-05-08 01:24 | 35.27190 | 139.79328 | 6007 ft | 259 kts | 205° |
| 2026-05-08 01:24 | 35.25505 | 139.78551 | 6013 ft | 259 kts | 205° |
| 2026-05-08 01:24 | 35.23819 | 139.77775 | 6012 ft | 259 kts | 205° |
| 2026-05-08 01:24 | 35.22126 | 139.77008 | 6008 ft | 260 kts | 203° |
| 2026-05-08 01:25 | 35.20334 | 139.76613 | 6021 ft | 267 kts | 184° |
| 2026-05-08 01:25 | 35.17156 | 139.77804 | 6021 ft | 276 kts | 162° |
| 2026-05-08 01:25 | 35.10087 | 139.81558 | 6023 ft | 277 kts | 162° |
| 2026-05-08 01:25 | 35.02996 | 139.85236 | 6024 ft | 278 kts | 162° |
| 2026-05-08 01:26 | 34.95911 | 139.88984 | 6024 ft | 280 kts | 156° |
| 2026-05-08 01:26 | 34.92351 | 139.97809 | 8157 ft | 304 kts | 113° |
| 2026-05-08 01:26 | 34.89585 | 140.07961 | 10829 ft | 344 kts | 114° |
| 2026-05-08 01:26 | 34.86227 | 140.20159 | 12600 ft | 398 kts | 114° |
| 2026-05-08 01:27 | 34.82634 | 140.33180 | 14996 ft | 415 kts | 114° |
| 2026-05-08 01:27 | 34.78859 | 140.46764 | 17161 ft | 432 kts | 114° |
| 2026-05-08 01:27 | 34.74942 | 140.60908 | 18835 ft | 448 kts | 111° |
| 2026-05-08 01:27 | 34.77889 | 140.75708 | 18190 ft | 477 kts | 45° |
| 2026-05-08 01:28 | 34.89450 | 140.79532 | 15617 ft | 426 kts | 334° |
| 2026-05-08 01:28 | 34.98535 | 140.71809 | 12925 ft | 419 kts | 337° |
| 2026-05-08 01:28 | 35.09729 | 140.74743 | 10832 ft | 421 kts | 46° |
| 2026-05-08 01:28 | 35.16871 | 140.86235 | 10828 ft | 424 kts | 53° |
| 2026-05-08 01:29 | 35.24117 | 140.97607 | 10833 ft | 424 kts | 46° |
| 2026-05-08 01:29 | 35.34200 | 141.04558 | 10839 ft | 414 kts | 9° |
| 2026-05-08 01:29 | 35.45434 | 141.05220 | 10841 ft | 400 kts | 342° |
| 2026-05-08 01:29 | 35.53541 | 140.98713 | 10082 ft | 335 kts | 284° |
| 2026-05-08 01:30 | 35.51368 | 140.89247 | 9238 ft | 278 kts | 221° |
| 2026-05-08 01:30 | 35.45863 | 140.83462 | 7979 ft | 256 kts | 240° |
| 2026-05-08 01:30 | 35.43037 | 140.76215 | 7459 ft | 215 kts | 244° |
| 2026-05-08 01:30 | 35.42880 | 140.69584 | 6669 ft | 202 kts | 285° |
| 2026-05-08 01:31 | 35.45051 | 140.63297 | 5679 ft | 203 kts | 302° |
| 2026-05-08 01:31 | 35.48092 | 140.59690 | 5416 ft | 209 kts | 311° |
| 2026-05-08 01:31 | 35.49162 | 140.58482 | 5306 ft | 208 kts | 311° |
| 2026-05-08 01:31 | 35.50226 | 140.57276 | 5253 ft | 208 kts | 310° |
| 2026-05-08 01:32 | 35.52021 | 140.55462 | 5107 ft | 211 kts | 320° |
| 2026-05-08 01:32 | 35.55632 | 140.52787 | 4368 ft | 214 kts | 323° |
| 2026-05-08 01:32 | 35.56914 | 140.51847 | 4041 ft | 215 kts | 323° |
| 2026-05-08 01:32 | 35.58197 | 140.50910 | 3746 ft | 215 kts | 323° |
| 2026-05-08 01:33 | 35.59467 | 140.49985 | 3466 ft | 215 kts | 324° |
| 2026-05-08 01:33 | 35.60752 | 140.49045 | 3183 ft | 215 kts | 324° |
| 2026-05-08 01:33 | 35.62035 | 140.48108 | 2895 ft | 214 kts | 325° |
| 2026-05-08 01:33 | 35.63317 | 140.47172 | 2633 ft | 213 kts | 325° |
| 2026-05-08 01:34 | 35.64587 | 140.46244 | 2353 ft | 209 kts | 324° |
| 2026-05-08 01:34 | 35.65790 | 140.45366 | 2112 ft | 193 kts | 323° |
| 2026-05-08 01:34 | 35.66899 | 140.44556 | 1844 ft | 178 kts | 324° |
| 2026-05-08 01:34 | 35.67926 | 140.43804 | 1623 ft | 167 kts | 324° |
| 2026-05-08 01:35 | 35.68898 | 140.43091 | 1402 ft | 158 kts | 323° |
| 2026-05-08 01:35 | 35.69833 | 140.42406 | 1198 ft | 155 kts | 324° |
| 2026-05-08 01:35 | 35.70761 | 140.41726 | 997 ft | 155 kts | 322° |
| 2026-05-08 01:35 | 35.71666 | 140.41065 | 795 ft | 148 kts | 323° |
| 2026-05-08 01:36 | 35.72558 | 140.40412 | 620 ft | 150 kts | 320° |
| 2026-05-08 01:36 | 35.73450 | 140.39755 | 404 ft | 152 kts | 322° |
| 2026-05-08 01:36 | 35.74333 | 140.39108 | 213 ft | 146 kts | 323° |
| 2026-05-08 01:36 | 35.75134 | 140.38530 | 152 ft | 103 kts | 335° |
| 2026-05-08 01:37 | 35.75477 | 140.38253 | 152 ft | 16 kts | 319° |
| 2026-05-08 01:37 | 35.75484 | 140.38245 | 152 ft | 0 kts | 320° |